createdAt,value
2023-01-26T00:01:23.144Z,10.13
2023-01-26T00:03:51.730Z,10.03
2023-01-26T00:06:21.353Z,9.77
2023-01-26T00:08:51.158Z,9.90
2023-01-26T00:11:20.608Z,9.37
2023-01-26T00:13:52.222Z,10.40
2023-01-26T00:16:20.522Z,10.67
2023-01-26T00:18:48.549Z,11.70
2023-01-26T00:21:18.545Z,11.00
2023-01-26T00:23:46.557Z,10.23
2023-01-26T00:26:16.053Z,10.03
2023-01-26T00:28:43.918Z,10.93
2023-01-26T00:31:15.481Z,11.57
2023-01-26T00:33:43.390Z,10.70
2023-01-26T00:36:12.113Z,10.07
2023-01-26T00:38:39.970Z,11.43
2023-01-26T00:41:08.048Z,10.23
2023-01-26T00:43:35.817Z,11.30
2023-01-26T00:46:03.622Z,10.93
2023-01-26T00:48:32.729Z,9.77
2023-01-26T00:51:00.528Z,10.87
2023-01-26T00:53:28.329Z,9.93
2023-01-26T00:55:58.083Z,10.23
2023-01-26T00:58:25.894Z,10.43
2023-01-26T01:00:54.724Z,9.80
2023-01-26T01:03:22.647Z,11.03
2023-01-26T01:05:52.712Z,9.93
2023-01-26T01:08:20.493Z,11.50
2023-01-26T01:10:48.314Z,11.03
2023-01-26T01:13:16.155Z,9.50
2023-01-26T01:15:43.972Z,10.60
2023-01-26T01:18:11.794Z,9.60
2023-01-26T01:20:41.987Z,10.57
2023-01-26T01:23:11.133Z,9.27
2023-01-26T01:25:38.923Z,11.80
2023-01-26T01:28:06.754Z,10.27
2023-01-26T01:30:34.550Z,9.80
2023-01-26T01:33:02.347Z,11.00
2023-01-26T01:35:30.465Z,11.07
2023-01-26T01:37:58.293Z,10.00
2023-01-26T01:40:27.580Z,10.70
2023-01-26T01:42:55.373Z,9.73
2023-01-26T01:45:42.542Z,11.07
2023-01-26T01:48:19.739Z,10.83
2023-01-26T01:50:49.290Z,10.43
2023-01-26T01:53:24.517Z,11.10
2023-01-26T01:55:57.584Z,11.80
2023-01-26T01:58:25.709Z,10.13
2023-01-26T02:00:53.678Z,10.43
2023-01-26T02:03:22.099Z,10.20
2023-01-26T02:05:55.799Z,9.50
2023-01-26T02:08:27.488Z,9.70
2023-01-26T02:11:00.573Z,11.10
2023-01-26T02:13:29.279Z,10.93
2023-01-26T02:15:58.469Z,10.43
2023-01-26T02:18:26.444Z,10.97
2023-01-26T02:20:57.051Z,10.13
2023-01-26T02:23:41.560Z,11.30
2023-01-26T02:26:13.795Z,11.00
2023-01-26T02:28:43.296Z,11.63
2023-01-26T02:31:12.697Z,11.00
2023-01-26T02:33:41.460Z,11.83
2023-01-26T02:36:17.600Z,11.77
2023-01-26T02:38:50.114Z,12.27
2023-01-26T02:41:40.100Z,11.53
2023-01-26T02:44:09.509Z,11.37
2023-01-26T02:46:37.297Z,10.13
2023-01-26T02:49:22.745Z,9.60
2023-01-26T02:51:50.765Z,9.97
2023-01-26T02:54:32.536Z,12.03
2023-01-26T02:57:01.668Z,10.90
2023-01-26T02:59:29.635Z,11.40
2023-01-26T03:01:58.703Z,11.30
2023-01-26T03:04:27.113Z,10.17
2023-01-26T03:06:55.520Z,10.73
2023-01-26T03:09:23.285Z,10.37
2023-01-26T03:11:51.537Z,10.57
2023-01-26T03:14:21.006Z,9.00
2023-01-26T03:16:48.789Z,10.37
2023-01-26T03:19:35.159Z,9.20
2023-01-26T03:22:20.585Z,8.37
2023-01-26T03:25:20.740Z,10.20
2023-01-26T03:27:49.968Z,9.23
2023-01-26T03:30:20.252Z,8.83
2023-01-26T03:32:48.024Z,8.37
2023-01-26T03:35:16.107Z,8.60
2023-01-26T03:37:44.504Z,9.77
2023-01-26T03:40:31.255Z,8.60
2023-01-26T03:43:16.709Z,9.20
2023-01-26T03:46:03.465Z,9.20
2023-01-26T03:48:49.008Z,9.03
2023-01-26T03:51:34.484Z,8.10
2023-01-26T03:54:19.990Z,8.73
2023-01-26T03:56:47.794Z,8.00
2023-01-26T03:59:16.891Z,8.80
2023-01-26T04:02:05.699Z,8.90
2023-01-26T04:04:51.079Z,7.33
2023-01-26T04:07:37.092Z,8.30
2023-01-26T04:10:05.162Z,7.73
2023-01-26T04:12:33.149Z,8.33
2023-01-26T04:15:18.574Z,7.93
2023-01-26T04:18:05.424Z,8.17
2023-01-26T04:20:50.961Z,8.23
2023-01-26T04:23:19.273Z,6.67
2023-01-26T04:25:48.182Z,8.63
2023-01-26T04:28:16.069Z,8.40
2023-01-26T04:30:43.943Z,8.60
2023-01-26T04:33:13.069Z,8.30
2023-01-26T04:35:40.867Z,8.10
2023-01-26T04:38:08.681Z,8.47
2023-01-26T04:40:36.521Z,8.37
2023-01-26T04:43:04.357Z,9.63
2023-01-26T04:45:32.150Z,9.37
2023-01-26T04:47:59.953Z,8.03
2023-01-26T04:50:29.117Z,8.33
2023-01-26T04:52:56.908Z,8.30
2023-01-26T04:55:24.730Z,9.17
2023-01-26T04:57:52.537Z,8.40
2023-01-26T05:00:21.451Z,9.07
2023-01-26T05:02:49.251Z,8.57
2023-01-26T05:05:17.168Z,9.03
2023-01-26T05:07:50.260Z,8.70
2023-01-26T05:10:18.570Z,8.87
2023-01-26T05:12:46.390Z,9.70
2023-01-26T05:15:14.166Z,10.37
2023-01-26T05:17:41.983Z,10.17
2023-01-26T05:20:11.871Z,9.10
2023-01-26T05:22:39.837Z,8.93
2023-01-26T05:25:09.990Z,8.83
2023-01-26T05:27:38.009Z,9.17
2023-01-26T05:30:06.717Z,9.80
2023-01-26T05:32:34.557Z,10.70
2023-01-26T05:35:02.377Z,9.47
2023-01-26T05:37:30.483Z,9.17
2023-01-26T05:39:58.331Z,8.40
2023-01-26T05:42:27.996Z,9.97
2023-01-26T05:44:55.826Z,8.80
2023-01-26T05:47:23.861Z,9.93
2023-01-26T05:49:51.819Z,11.07
2023-01-26T05:52:21.897Z,9.07
2023-01-26T05:54:49.904Z,9.50
2023-01-26T05:57:17.903Z,9.90
2023-01-26T05:59:47.098Z,9.10
2023-01-26T06:02:15.116Z,8.23
2023-01-26T06:04:43.005Z,9.93
2023-01-26T06:07:13.488Z,10.20
2023-01-26T06:09:41.481Z,8.87
2023-01-26T06:12:15.571Z,23.23
2023-01-26T06:14:44.229Z,10.27
2023-01-26T06:17:16.326Z,8.47
2023-01-26T06:19:44.593Z,8.03
2023-01-26T06:22:14.176Z,8.10
2023-01-26T06:24:42.066Z,8.13
2023-01-26T06:27:13.706Z,7.43
2023-01-26T06:29:42.764Z,8.40
2023-01-26T06:32:11.323Z,8.10
2023-01-26T06:34:40.589Z,8.27
2023-01-26T06:37:08.874Z,8.47
2023-01-26T06:39:37.634Z,8.40
2023-01-26T06:42:05.930Z,8.37
2023-01-26T06:44:33.868Z,8.80
2023-01-26T06:47:02.073Z,8.60
2023-01-26T06:49:29.958Z,8.70
2023-01-26T06:52:04.117Z,8.27
2023-01-26T06:54:31.945Z,8.43
2023-01-26T06:56:59.798Z,8.70
2023-01-26T06:59:27.613Z,7.83
2023-01-26T07:01:55.449Z,9.17
2023-01-26T07:04:27.075Z,9.07
2023-01-26T07:06:54.921Z,9.47
2023-01-26T07:09:24.025Z,8.13
2023-01-26T07:11:51.787Z,9.17
2023-01-26T07:14:19.590Z,7.23
2023-01-26T07:16:47.518Z,7.30
2023-01-26T07:19:15.339Z,7.03
2023-01-26T07:21:43.106Z,7.07
2023-01-26T07:24:11.261Z,7.20
2023-01-26T07:26:40.903Z,6.10
2023-01-26T07:29:08.877Z,7.37
2023-01-26T07:31:37.744Z,7.20
2023-01-26T07:34:05.514Z,6.70
2023-01-26T07:36:33.276Z,7.17
2023-01-26T07:39:01.080Z,6.60
2023-01-26T07:41:28.863Z,5.90
2023-01-26T07:43:58.074Z,7.07
2023-01-26T07:46:26.076Z,6.90
2023-01-26T07:48:53.930Z,6.63
2023-01-26T07:51:21.685Z,7.40
2023-01-26T07:53:50.012Z,7.50
2023-01-26T07:56:19.680Z,7.90
2023-01-26T07:58:51.219Z,9.57
2023-01-26T08:01:20.590Z,8.20
2023-01-26T08:03:51.748Z,7.53
2023-01-26T08:06:19.569Z,8.33
2023-01-26T08:08:50.992Z,7.33
2023-01-26T08:11:22.281Z,6.47
2023-01-26T08:13:50.364Z,6.40
2023-01-26T08:16:18.585Z,7.20
2023-01-26T08:18:48.422Z,7.10
2023-01-26T08:21:18.047Z,7.23
2023-01-26T08:23:49.610Z,6.60
2023-01-26T08:26:19.050Z,6.63
2023-01-26T08:28:47.358Z,6.87
2023-01-26T08:31:18.795Z,6.80
2023-01-26T08:33:50.622Z,6.87
2023-01-26T08:36:22.155Z,6.97
2023-01-26T08:38:50.959Z,6.50
2023-01-26T08:41:19.357Z,6.47
2023-01-26T08:43:47.206Z,6.47
2023-01-26T08:46:15.944Z,7.93
2023-01-26T08:48:43.892Z,7.60
2023-01-26T08:51:13.094Z,7.23
2023-01-26T08:53:40.896Z,7.50
2023-01-26T08:56:11.236Z,6.90
2023-01-26T08:58:39.479Z,9.10
2023-01-26T09:01:08.267Z,8.07
2023-01-26T09:03:36.795Z,6.47
2023-01-26T09:06:06.161Z,7.43
2023-01-26T09:08:35.377Z,8.67
2023-01-26T09:11:03.956Z,7.53
2023-01-26T09:13:31.753Z,8.00
2023-01-26T09:15:59.615Z,7.70
2023-01-26T09:18:27.489Z,7.33
2023-01-26T09:20:55.918Z,8.93
2023-01-26T09:23:23.749Z,6.10
2023-01-26T09:25:55.335Z,7.40
2023-01-26T09:28:23.297Z,7.70
2023-01-26T09:30:51.301Z,7.83
2023-01-26T09:33:21.464Z,6.80
2023-01-26T09:35:49.984Z,6.37
2023-01-26T09:38:17.851Z,5.83
2023-01-26T09:40:58.339Z,4.63
2023-01-26T09:43:37.260Z,6.60
2023-01-26T09:46:19.017Z,6.47
2023-01-26T09:48:55.111Z,6.50
2023-01-26T09:51:29.090Z,6.77
2023-01-26T09:54:00.123Z,6.47
2023-01-26T09:56:32.539Z,6.23
2023-01-26T09:59:07.617Z,7.93
2023-01-26T10:01:41.544Z,5.93
2023-01-26T10:04:20.309Z,6.03
2023-01-26T10:06:49.364Z,4.53
2023-01-26T10:09:20.884Z,4.70
2023-01-26T10:11:52.605Z,5.27
2023-01-26T10:14:32.346Z,5.87
2023-01-26T10:17:01.833Z,5.93
2023-01-26T10:19:35.558Z,5.53
2023-01-26T10:22:14.502Z,5.07
2023-01-26T10:24:43.115Z,6.23
2023-01-26T10:27:14.960Z,6.03
2023-01-26T10:29:44.138Z,6.47
2023-01-26T10:32:15.675Z,5.73
2023-01-26T10:34:44.383Z,4.90
2023-01-26T10:37:22.512Z,6.17
2023-01-26T10:40:02.156Z,6.33
2023-01-26T10:42:32.270Z,6.67
2023-01-26T10:45:03.751Z,6.00
2023-01-26T10:47:31.801Z,6.03
2023-01-26T10:50:21.373Z,6.23
2023-01-26T10:52:59.822Z,7.17
2023-01-26T10:55:28.460Z,5.93
2023-01-26T10:57:56.335Z,5.77
2023-01-26T11:00:29.716Z,6.00
2023-01-26T11:03:06.048Z,6.37
2023-01-26T11:05:34.259Z,6.43
2023-01-26T11:08:03.415Z,6.80
2023-01-26T11:10:33.863Z,6.53
2023-01-26T11:13:19.274Z,5.10
2023-01-26T11:15:50.035Z,7.67
2023-01-26T11:18:24.392Z,7.23
2023-01-26T11:21:01.937Z,9.37
2023-01-26T11:23:41.030Z,7.40
2023-01-26T11:26:38.448Z,5.43
2023-01-26T11:29:25.834Z,5.77
2023-01-26T11:32:00.527Z,5.37
2023-01-26T11:34:40.376Z,6.57
2023-01-26T11:37:34.524Z,7.20
2023-01-26T11:40:29.492Z,7.23
2023-01-26T11:43:16.259Z,6.90
2023-01-26T11:46:04.673Z,7.30
2023-01-26T11:48:45.113Z,7.10
2023-01-26T11:51:22.374Z,7.87
2023-01-26T11:54:07.701Z,7.03
2023-01-26T11:56:46.593Z,8.33
2023-01-26T11:59:19.081Z,7.50
2023-01-26T12:01:53.256Z,9.50
2023-01-26T12:04:23.613Z,8.63
2023-01-26T12:06:59.079Z,7.93
2023-01-26T12:09:34.348Z,11.13
2023-01-26T12:12:09.884Z,7.47
2023-01-26T12:14:43.624Z,6.73
2023-01-26T12:17:27.964Z,6.27
2023-01-26T12:20:05.421Z,7.07
2023-01-26T12:22:36.257Z,5.40
2023-01-26T12:25:20.139Z,7.20
2023-01-26T12:27:55.715Z,6.50
2023-01-26T12:30:29.541Z,6.53
2023-01-26T12:32:57.489Z,6.60
2023-01-26T12:35:38.687Z,6.43
2023-01-26T12:38:18.244Z,7.33
2023-01-26T12:40:58.463Z,6.63
2023-01-26T12:43:39.560Z,6.67
2023-01-26T12:46:08.984Z,6.33
2023-01-26T12:48:42.709Z,6.50
2023-01-26T12:51:19.750Z,7.00
2023-01-26T12:53:54.511Z,7.03
2023-01-26T12:56:28.205Z,6.73
2023-01-26T12:58:58.775Z,7.60
2023-01-26T13:01:37.473Z,5.27
2023-01-26T13:04:09.950Z,6.17
2023-01-26T13:06:39.338Z,7.37
2023-01-26T13:09:21.400Z,5.67
2023-01-26T13:11:52.423Z,7.17
2023-01-26T13:14:37.380Z,5.93
2023-01-26T13:17:42.439Z,6.70
2023-01-26T13:20:49.923Z,7.13
2023-01-26T13:23:51.551Z,5.20
2023-01-26T13:26:44.277Z,6.50
2023-01-26T13:29:33.934Z,7.30
2023-01-26T13:32:21.424Z,8.03
2023-01-26T13:34:54.621Z,6.93
2023-01-26T13:37:27.185Z,7.33
2023-01-26T13:40:01.386Z,7.80
2023-01-26T13:42:36.452Z,7.70
2023-01-26T13:45:08.601Z,8.23
2023-01-26T13:47:41.537Z,8.63
2023-01-26T13:50:23.764Z,8.27
2023-01-26T13:52:51.850Z,8.20
2023-01-26T13:55:27.141Z,8.93
2023-01-26T13:58:14.795Z,8.73
2023-01-26T14:00:42.946Z,9.90
2023-01-26T14:03:22.946Z,7.63
2023-01-26T14:05:56.973Z,8.63
2023-01-26T14:08:25.179Z,8.13
2023-01-26T14:10:54.538Z,8.73
2023-01-26T14:13:26.293Z,7.70
2023-01-26T14:15:58.327Z,7.93
2023-01-26T14:18:26.418Z,8.90
2023-01-26T14:21:00.649Z,7.47
2023-01-26T14:23:30.309Z,8.00
2023-01-26T14:26:01.998Z,8.57
2023-01-26T14:28:34.334Z,7.87
2023-01-26T14:31:08.465Z,7.53
2023-01-26T14:33:38.044Z,8.00
2023-01-26T14:36:07.202Z,7.33
2023-01-26T14:38:44.224Z,8.07
2023-01-26T14:41:18.378Z,7.83
2023-01-26T14:43:46.159Z,7.53
2023-01-26T14:46:18.508Z,8.73
2023-01-26T14:48:50.565Z,8.53
2023-01-26T14:51:21.486Z,9.03
2023-01-26T14:53:51.359Z,8.17
2023-01-26T14:56:24.674Z,8.90
2023-01-26T14:58:54.883Z,8.70
2023-01-26T15:01:23.986Z,8.47
2023-01-26T15:03:59.569Z,7.83
2023-01-26T15:06:30.186Z,6.83
2023-01-26T15:09:02.161Z,8.37
2023-01-26T15:11:57.503Z,7.63
2023-01-26T15:14:37.214Z,9.10
2023-01-26T15:17:06.244Z,8.87
2023-01-26T15:19:41.321Z,8.43
2023-01-26T15:22:21.279Z,7.23
2023-01-26T15:25:05.535Z,7.73
2023-01-26T15:27:37.055Z,8.30
2023-01-26T15:30:07.964Z,10.87
2023-01-26T15:32:40.547Z,7.10
2023-01-26T15:35:20.985Z,9.40
2023-01-26T15:37:49.107Z,7.70
2023-01-26T15:40:17.562Z,8.60
2023-01-26T15:42:46.670Z,8.27
2023-01-26T15:45:24.431Z,8.67
2023-01-26T15:47:52.318Z,8.43
2023-01-26T15:50:27.854Z,8.27
2023-01-26T15:52:56.364Z,8.87
2023-01-26T15:55:29.093Z,10.97
2023-01-26T15:57:58.344Z,8.03
2023-01-26T16:00:26.373Z,8.53
2023-01-26T16:02:54.216Z,8.17
2023-01-26T16:05:24.610Z,7.87
2023-01-26T16:07:52.718Z,8.90
2023-01-26T16:10:21.081Z,10.23
2023-01-26T16:12:50.624Z,9.63
2023-01-26T16:15:39.103Z,7.83
2023-01-26T16:18:07.066Z,8.13
2023-01-26T16:20:35.450Z,7.93
2023-01-26T16:23:03.306Z,8.33
2023-01-26T16:25:32.693Z,7.50
2023-01-26T16:28:00.735Z,7.00
2023-01-26T16:30:29.933Z,8.23
2023-01-26T16:32:57.685Z,8.17
2023-01-26T16:35:26.450Z,9.63
2023-01-26T16:37:54.233Z,8.43
2023-01-26T16:40:22.251Z,8.87
2023-01-26T16:42:51.941Z,8.20
2023-01-26T16:45:21.745Z,7.43
2023-01-26T16:47:54.772Z,9.80
2023-01-26T16:50:23.351Z,10.13
2023-01-26T16:52:51.375Z,7.47
2023-01-26T16:55:20.127Z,9.07
2023-01-26T16:57:49.713Z,8.97
2023-01-26T17:00:19.905Z,7.83
2023-01-26T17:02:50.300Z,8.57
2023-01-26T17:05:21.927Z,8.13
2023-01-26T17:07:50.979Z,8.97
2023-01-26T17:10:22.368Z,9.27
2023-01-26T17:12:50.194Z,8.53
2023-01-26T17:15:18.079Z,7.77
2023-01-26T17:17:45.874Z,8.60
2023-01-26T17:20:19.277Z,9.07
2023-01-26T17:22:49.630Z,10.10
2023-01-26T17:25:18.295Z,10.47
2023-01-26T17:27:49.678Z,10.67
2023-01-26T17:30:18.445Z,13.00
2023-01-26T17:32:46.476Z,10.17
2023-01-26T17:35:14.432Z,11.40
2023-01-26T17:37:42.354Z,10.53
2023-01-26T17:40:12.681Z,10.57
2023-01-26T17:42:40.653Z,11.73
2023-01-26T17:45:10.429Z,9.43
2023-01-26T17:47:38.694Z,11.70
2023-01-26T17:50:07.419Z,9.73
2023-01-26T17:52:36.489Z,9.27
2023-01-26T17:55:06.254Z,11.93
2023-01-26T17:57:35.759Z,13.83
2023-01-26T18:00:04.233Z,11.00
2023-01-26T18:02:32.059Z,12.27
2023-01-26T18:04:59.901Z,10.43
2023-01-26T18:07:27.658Z,9.03
2023-01-26T18:09:55.447Z,10.00
2023-01-26T18:12:23.245Z,8.17
2023-01-26T18:14:54.925Z,9.83
2023-01-26T18:17:23.091Z,9.73
2023-01-26T18:19:50.915Z,10.43
2023-01-26T18:22:18.707Z,8.37
2023-01-26T18:24:46.525Z,10.27
2023-01-26T18:27:14.337Z,9.27
2023-01-26T18:29:42.174Z,9.53
2023-01-26T18:32:11.926Z,8.30
2023-01-26T18:34:41.758Z,9.17
2023-01-26T18:37:10.081Z,10.17
2023-01-26T18:39:38.308Z,8.87
2023-01-26T18:42:06.397Z,9.63
2023-01-26T18:44:34.471Z,8.43
2023-01-26T18:47:02.265Z,9.43
2023-01-26T18:49:31.359Z,10.50
2023-01-26T18:51:59.161Z,8.90
2023-01-26T18:54:27.122Z,8.70
2023-01-26T18:56:56.234Z,10.37
2023-01-26T18:59:24.018Z,6.87
2023-01-26T19:01:51.833Z,8.30
2023-01-26T19:04:19.670Z,6.67
2023-01-26T19:06:48.797Z,7.00
2023-01-26T19:09:16.587Z,6.87
2023-01-26T19:11:44.389Z,6.73
2023-01-26T19:14:12.177Z,8.03
2023-01-26T19:16:42.151Z,22.90
2023-01-26T19:19:11.825Z,11.63
2023-01-26T19:21:39.628Z,11.13
2023-01-26T19:24:10.010Z,9.13
2023-01-26T19:26:37.835Z,8.27
2023-01-26T19:29:06.180Z,8.93
2023-01-26T19:31:35.498Z,9.03
2023-01-26T19:34:05.374Z,10.33
2023-01-26T19:36:35.692Z,9.00
2023-01-26T19:39:05.082Z,8.53
2023-01-26T19:41:34.607Z,8.77
2023-01-26T19:44:02.413Z,10.63
2023-01-26T19:46:30.195Z,8.70
2023-01-26T19:48:57.987Z,7.10
2023-01-26T19:51:27.457Z,7.47
2023-01-26T19:53:57.183Z,8.43
2023-01-26T19:56:26.618Z,8.30
2023-01-26T19:58:57.365Z,7.10
2023-01-26T20:01:27.372Z,8.47
2023-01-26T20:03:58.934Z,9.50
2023-01-26T20:06:29.161Z,10.53
2023-01-26T20:08:57.312Z,9.20
2023-01-26T20:11:27.233Z,8.60
2023-01-26T20:13:57.542Z,8.90
2023-01-26T20:16:27.931Z,8.70
2023-01-26T20:18:56.167Z,7.77
2023-01-26T20:21:24.280Z,7.73
2023-01-26T20:23:55.437Z,8.60
2023-01-26T20:26:24.861Z,8.73
2023-01-26T20:28:54.017Z,9.37
2023-01-26T20:31:25.537Z,9.87
2023-01-26T20:33:54.185Z,10.07
2023-01-26T20:36:23.988Z,9.40
2023-01-26T20:38:52.579Z,8.47
2023-01-26T20:41:22.430Z,9.50
2023-01-26T20:43:59.683Z,7.00
2023-01-26T20:46:31.550Z,8.20
2023-01-26T20:48:59.420Z,7.93
2023-01-26T20:51:30.314Z,7.10
2023-01-26T20:53:58.489Z,10.90
2023-01-26T20:56:26.980Z,7.53
2023-01-26T20:58:56.191Z,8.77
2023-01-26T21:01:25.033Z,8.63
2023-01-26T21:03:54.909Z,6.60
2023-01-26T21:06:24.165Z,6.67
2023-01-26T21:08:55.088Z,6.67
2023-01-26T21:11:24.682Z,6.60
2023-01-26T21:13:52.850Z,8.07
2023-01-26T21:16:20.949Z,11.00
2023-01-26T21:18:49.318Z,8.93
2023-01-26T21:21:19.321Z,9.43
2023-01-26T21:23:47.446Z,9.60
2023-01-26T21:26:16.957Z,9.10
2023-01-26T21:28:44.958Z,7.97
2023-01-26T21:31:14.733Z,7.30
2023-01-26T21:33:44.646Z,7.57
2023-01-26T21:36:14.559Z,7.80
2023-01-26T21:38:45.722Z,8.43
2023-01-26T21:41:33.274Z,10.83
2023-01-26T21:44:02.633Z,6.57
2023-01-26T21:46:31.198Z,6.97
2023-01-26T21:48:59.592Z,9.50
2023-01-26T21:51:45.669Z,9.53
2023-01-26T21:54:15.815Z,7.63
2023-01-26T21:56:44.018Z,8.90
2023-01-26T21:59:14.596Z,9.17
2023-01-26T22:01:44.364Z,8.00
2023-01-26T22:04:13.969Z,8.53
2023-01-26T22:06:42.146Z,8.33
2023-01-26T22:09:12.352Z,8.17
2023-01-26T22:11:41.605Z,8.87
2023-01-26T22:14:14.107Z,9.17
2023-01-26T22:16:42.034Z,9.40
2023-01-26T22:19:10.350Z,11.33
2023-01-26T22:21:38.502Z,10.10
2023-01-26T22:24:08.335Z,7.67
2023-01-26T22:26:38.029Z,8.67
2023-01-26T22:29:07.822Z,8.40
2023-01-26T22:31:35.870Z,9.73
2023-01-26T22:34:04.208Z,9.93
2023-01-26T22:36:32.095Z,10.37
2023-01-26T22:39:00.770Z,9.30
2023-01-26T22:41:30.379Z,10.53
2023-01-26T22:43:59.876Z,8.40
2023-01-26T22:46:30.381Z,9.13
2023-01-26T22:48:59.448Z,9.93
2023-01-26T22:51:29.563Z,9.03
2023-01-26T22:53:59.548Z,8.30
2023-01-26T22:56:28.285Z,11.23
2023-01-26T22:59:00.100Z,9.50
2023-01-26T23:01:31.364Z,8.50
2023-01-26T23:04:00.805Z,10.10
2023-01-26T23:06:29.392Z,9.30
2023-01-26T23:08:58.267Z,8.80
2023-01-26T23:11:27.399Z,8.80
2023-01-26T23:13:56.709Z,7.93
2023-01-26T23:16:25.677Z,8.53
2023-01-26T23:18:57.449Z,9.67
2023-01-26T23:21:28.415Z,9.50
2023-01-26T23:23:56.518Z,7.47
2023-01-26T23:26:24.668Z,7.33
2023-01-26T23:28:52.553Z,9.87
2023-01-26T23:31:21.151Z,7.20
2023-01-26T23:33:49.158Z,8.37
2023-01-26T23:36:18.383Z,8.17
2023-01-26T23:38:46.284Z,9.10
2023-01-26T23:41:14.442Z,9.23
2023-01-26T23:43:42.429Z,7.57
2023-01-26T23:46:11.542Z,7.13
2023-01-26T23:48:39.972Z,8.33
2023-01-26T23:51:09.896Z,8.20
2023-01-26T23:53:39.237Z,7.97
2023-01-26T23:56:09.393Z,8.30
2023-01-26T23:58:38.148Z,8.20
